Time;durP1;ratioP1;P1;durP2;ratioP2;P2;SDS_P1;SDS_P2;PMS_P1;PMS_P2;Temp;Humidity;BMP_temperature;BMP_pressure;BME280_temperature;BME280_humidity;BME280_pressure;Samples;Min_cycle;Max_cycle;Signal;HPM_P1;HPM_P2
2022/08/23 00:01:17;;;;;;;13.70;8.00;;;17.20;99.90;;;;;;4974168;28;20049;-79
2022/08/23 00:03:42;;;;;;;14.43;8.15;;;17.20;99.90;;;;;;4992307;28;20040;-79
2022/08/23 00:06:09;;;;;;;9.82;7.78;;;17.20;99.90;;;;;;4995742;28;20068;-79
2022/08/23 00:08:36;;;;;;;11.48;8.60;;;17.20;99.90;;;;;;4990084;28;20042;-79
2022/08/23 00:11:02;;;;;;;13.18;8.35;;;17.10;99.90;;;;;;4973110;28;20125;-79
2022/08/23 00:13:28;;;;;;;12.40;8.27;;;17.10;99.90;;;;;;4994395;28;20034;-80
2022/08/23 00:15:54;;;;;;;15.52;8.98;;;17.10;99.90;;;;;;4961806;28;20123;-79
2022/08/23 00:18:20;;;;;;;15.77;9.43;;;17.00;99.90;;;;;;4974021;28;20041;-79
2022/08/23 00:20:47;;;;;;;12.38;9.10;;;17.00;99.90;;;;;;4995581;28;20041;-79
2022/08/23 00:23:13;;;;;;;19.67;9.60;;;17.00;99.90;;;;;;4994680;28;20051;-79
2022/08/23 00:25:39;;;;;;;12.98;8.25;;;17.00;99.90;;;;;;4997409;28;20140;-79
2022/08/23 00:28:05;;;;;;;11.52;7.90;;;17.00;99.90;;;;;;5011374;28;20514;-79
2022/08/23 00:30:30;;;;;;;16.02;9.15;;;16.90;99.90;;;;;;5007735;28;20526;-79
2022/08/23 00:32:56;;;;;;;11.57;8.15;;;16.90;99.90;;;;;;4993238;28;20038;-79
2022/08/23 00:35:23;;;;;;;12.60;8.65;;;16.90;99.90;;;;;;5007629;28;20034;-79
2022/08/23 00:37:49;;;;;;;12.45;8.23;;;16.80;99.90;;;;;;4991970;28;20065;-79
2022/08/23 00:40:16;;;;;;;13.50;8.07;;;16.80;99.90;;;;;;4978539;28;20501;-79
2022/08/23 00:48:33;;;;;;;12.43;9.13;;;16.60;99.90;;;;;;4989070;28;20493;-79
2022/08/23 00:51:07;;;;;;;14.13;9.77;;;16.60;99.90;;;;;;4979233;28;20617;-79
2022/08/23 00:53:37;;;;;;;16.02;9.15;;;16.60;99.90;;;;;;4995494;28;20148;-80
2022/08/23 00:56:07;;;;;;;14.02;9.93;;;16.60;99.90;;;;;;4991050;28;20112;-79
2022/08/23 00:58:33;;;;;;;13.27;10.20;;;16.60;99.90;;;;;;4993544;28;20052;-79
2022/08/23 01:01:01;;;;;;;16.55;10.07;;;16.60;99.90;;;;;;4988663;28;20553;-79
2022/08/23 01:03:29;;;;;;;10.68;9.25;;;16.60;99.90;;;;;;4988160;28;20037;-79
2022/08/23 01:06:10;;;;;;;13.15;9.65;;;16.60;99.90;;;;;;4991845;28;20037;-79
2022/08/23 01:08:37;;;;;;;14.27;10.60;;;16.50;99.90;;;;;;4988200;28;20099;-79
2022/08/23 01:11:19;;;;;;;13.25;10.50;;;16.50;99.90;;;;;;4975369;28;20042;-79
2022/08/23 01:13:51;;;;;;;11.35;9.85;;;16.50;99.90;;;;;;5009111;28;20479;-79
2022/08/23 01:16:32;;;;;;;14.10;10.18;;;16.50;99.90;;;;;;4991149;28;20038;-79
2022/08/23 01:19:00;;;;;;;14.48;9.90;;;16.50;99.90;;;;;;4994854;28;20102;-79
2022/08/23 01:21:45;;;;;;;13.82;9.90;;;16.50;99.90;;;;;;4989667;28;20149;-79
2022/08/23 01:24:13;;;;;;;11.88;10.25;;;16.50;99.90;;;;;;5007638;28;20048;-79
2022/08/23 01:26:38;;;;;;;18.85;10.00;;;16.50;99.90;;;;;;4993432;28;20734;-79
2022/08/23 01:29:05;;;;;;;12.45;9.50;;;16.50;99.90;;;;;;4993348;28;20038;-79
2022/08/23 01:31:32;;;;;;;15.70;10.25;;;16.40;99.90;;;;;;4992204;28;20100;-79
2022/08/23 01:34:02;;;;;;;12.88;9.60;;;16.40;99.90;;;;;;4977639;28;20430;-79
2022/08/23 01:36:29;;;;;;;11.82;9.82;;;16.40;99.90;;;;;;4954270;28;20038;-79
2022/08/23 01:38:55;;;;;;;14.13;10.18;;;16.40;99.90;;;;;;4968150;28;20046;-79
2022/08/23 01:41:21;;;;;;;12.18;10.88;;;16.40;99.90;;;;;;4952434;28;20050;-79
2022/08/23 01:43:47;;;;;;;11.15;9.73;;;16.30;99.90;;;;;;4968818;28;20089;-79
2022/08/23 01:46:16;;;;;;;12.15;9.23;;;16.30;99.90;;;;;;4953493;28;20543;-79
2022/08/23 01:48:45;;;;;;;14.20;9.88;;;16.30;99.90;;;;;;4966851;28;20053;-79
2022/08/23 01:51:12;;;;;;;13.20;10.35;;;16.30;99.90;;;;;;4969208;28;20305;-79
2022/08/23 01:53:39;;;;;;;15.93;10.65;;;16.20;99.90;;;;;;4951299;28;20393;-79
2022/08/23 01:56:06;;;;;;;11.13;9.55;;;16.20;99.90;;;;;;4953311;28;20054;-79
2022/08/23 01:58:33;;;;;;;12.23;9.85;;;16.20;99.90;;;;;;4952421;28;20049;-79
2022/08/23 02:01:00;;;;;;;16.38;10.48;;;16.20;99.90;;;;;;4984338;28;20038;-79
2022/08/23 02:03:28;;;;;;;14.70;11.80;;;16.10;99.90;;;;;;4952601;28;20034;-79
2022/08/23 02:05:54;;;;;;;14.48;11.50;;;16.10;99.90;;;;;;4966754;28;20058;-79
2022/08/23 02:11:15;;;;;;;16.80;10.95;;;16.00;99.90;;;;;;4973271;28;20673;-79
2022/08/23 02:13:42;;;;;;;15.35;10.52;;;15.90;99.90;;;;;;4983055;28;20095;-79
2022/08/23 02:16:08;;;;;;;11.88;9.77;;;15.90;99.90;;;;;;4965139;28;20412;-79
2022/08/23 02:18:34;;;;;;;12.13;10.52;;;15.90;99.90;;;;;;4936258;28;20046;-79
2022/08/23 02:21:00;;;;;;;12.63;9.73;;;15.90;99.90;;;;;;4983797;28;20038;-79
2022/08/23 02:23:26;;;;;;;17.65;12.07;;;15.90;99.90;;;;;;4951853;28;20436;-79
2022/08/23 02:25:52;;;;;;;15.75;11.65;;;15.90;99.90;;;;;;4983658;28;20034;-79
2022/08/23 02:28:22;;;;;;;15.57;11.57;;;15.80;99.90;;;;;;4937593;28;20487;-80
2022/08/23 02:30:49;;;;;;;15.98;11.48;;;15.80;99.90;;;;;;4966789;28;20104;-79
2022/08/23 02:33:15;;;;;;;13.85;11.20;;;15.80;99.90;;;;;;4972379;28;20068;-79
2022/08/23 02:35:41;;;;;;;13.85;10.95;;;15.80;99.90;;;;;;4972390;28;20044;-79
2022/08/23 02:38:10;;;;;;;13.77;10.65;;;15.80;99.90;;;;;;4969903;28;20033;-79
2022/08/23 02:40:37;;;;;;;13.73;11.32;;;15.70;99.90;;;;;;5002830;28;20117;-79
2022/08/23 02:43:05;;;;;;;12.70;9.82;;;15.70;99.90;;;;;;4988036;28;20033;-79
2022/08/23 02:45:31;;;;;;;14.25;9.25;;;15.60;99.90;;;;;;4987697;28;20049;-79
2022/08/23 02:47:57;;;;;;;12.38;10.23;;;15.60;99.90;;;;;;4971322;28;20042;-79
2022/08/23 02:50:23;;;;;;;15.60;11.88;;;15.60;99.90;;;;;;4972210;28;20046;-79
2022/08/23 02:52:49;;;;;;;13.48;11.07;;;15.60;99.90;;;;;;4986902;28;20041;-79
2022/08/23 02:55:15;;;;;;;12.25;10.95;;;15.60;99.90;;;;;;4986583;28;20034;-79
2022/08/23 02:57:41;;;;;;;12.00;9.88;;;15.50;99.90;;;;;;4987920;28;20046;-79
2022/08/23 03:00:09;;;;;;;10.18;8.80;;;15.50;99.90;;;;;;4987779;28;20276;-79
2022/08/23 03:02:36;;;;;;;10.05;9.00;;;15.50;99.90;;;;;;5003310;28;20096;-78
2022/08/23 03:05:08;;;;;;;9.98;8.80;;;15.50;99.90;;;;;;4971694;28;20092;-79
2022/08/23 03:07:33;;;;;;;12.57;9.32;;;15.40;99.90;;;;;;4987467;28;20073;-79
2022/08/23 03:09:59;;;;;;;9.52;8.55;;;15.40;99.90;;;;;;4971537;28;20088;-79
2022/08/23 03:12:26;;;;;;;12.75;10.50;;;15.50;99.90;;;;;;4972627;28;20049;-79
2022/08/23 03:14:51;;;;;;;11.18;9.55;;;15.40;99.90;;;;;;4987899;28;20042;-79
2022/08/23 03:17:18;;;;;;;13.65;11.13;;;15.40;99.90;;;;;;4986334;28;20041;-79
2022/08/23 03:19:44;;;;;;;12.73;10.38;;;15.40;99.90;;;;;;4993159;28;21017;-79
2022/08/23 03:22:10;;;;;;;14.18;10.05;;;15.40;99.90;;;;;;4972288;28;20464;-79
2022/08/23 03:24:36;;;;;;;10.88;9.73;;;15.40;99.90;;;;;;4990496;28;20104;-79
2022/08/23 03:27:02;;;;;;;10.73;9.63;;;15.30;99.90;;;;;;4989537;28;20069;-79
2022/08/23 03:29:28;;;;;;;10.18;8.98;;;15.30;99.90;;;;;;4990892;28;20133;-79
2022/08/23 03:31:54;;;;;;;11.80;9.82;;;15.30;99.90;;;;;;4989099;28;20562;-79
2022/08/23 03:34:20;;;;;;;11.55;9.68;;;15.20;99.90;;;;;;5002486;28;20046;-78
2022/08/23 03:36:45;;;;;;;10.43;8.98;;;15.20;99.90;;;;;;5002396;28;20479;-79
2022/08/23 03:39:11;;;;;;;11.27;9.25;;;15.20;99.90;;;;;;4972294;28;21070;-78
2022/08/23 03:41:37;;;;;;;12.48;9.50;;;15.20;99.90;;;;;;4974394;28;20038;-78
2022/08/23 03:44:03;;;;;;;12.27;9.10;;;15.20;99.90;;;;;;4973446;28;20034;-78
2022/08/23 03:46:30;;;;;;;10.13;8.65;;;15.20;99.90;;;;;;4987992;28;20372;-79
2022/08/23 03:48:58;;;;;;;14.38;10.50;;;15.10;99.90;;;;;;4972196;28;20070;-78
2022/08/23 03:51:26;;;;;;;11.88;9.68;;;15.10;99.90;;;;;;4971789;28;20048;-78
2022/08/23 03:53:52;;;;;;;10.25;9.02;;;15.10;99.90;;;;;;4971238;28;20042;-78
2022/08/23 03:56:33;;;;;;;12.30;9.93;;;15.10;99.90;;;;;;4956536;28;20031;-79
2022/08/23 03:59:02;;;;;;;12.45;9.90;;;15.10;99.90;;;;;;4991468;28;21391;-78
2022/08/23 04:01:28;;;;;;;11.00;9.32;;;15.00;99.90;;;;;;4984541;28;20049;-78
2022/08/23 04:03:54;;;;;;;10.57;9.32;;;15.00;99.90;;;;;;4987372;28;20037;-79
2022/08/23 04:06:20;;;;;;;9.65;8.75;;;15.00;99.90;;;;;;4970730;28;20368;-78
2022/08/23 04:08:45;;;;;;;10.38;9.40;;;15.00;99.90;;;;;;5002907;28;20124;-79
2022/08/23 04:11:13;;;;;;;10.82;8.02;;;15.00;99.90;;;;;;4985858;28;20111;-79
2022/08/23 04:13:39;;;;;;;9.00;7.45;;;15.00;99.90;;;;;;4955159;28;21606;-79
2022/08/23 04:16:06;;;;;;;7.75;6.95;;;15.00;99.90;;;;;;4986275;28;20034;-78
2022/08/23 04:18:32;;;;;;;5.97;5.47;;;14.90;99.90;;;;;;4985214;28;20038;-78
2022/08/23 04:21:00;;;;;;;5.72;5.13;;;14.90;99.90;;;;;;4956703;28;20268;-78
2022/08/23 04:23:27;;;;;;;6.28;5.63;;;14.80;99.90;;;;;;4988130;28;20050;-78
2022/08/23 04:25:56;;;;;;;6.85;6.15;;;14.80;99.90;;;;;;5002679;28;20468;-79
2022/08/23 04:28:22;;;;;;;6.22;5.68;;;14.70;99.90;;;;;;4985985;28;20518;-79
2022/08/23 04:30:50;;;;;;;5.78;5.28;;;14.70;99.90;;;;;;4970134;28;20046;-78
2022/08/23 04:33:16;;;;;;;6.20;5.57;;;14.70;99.90;;;;;;4971648;28;20045;-78
2022/08/23 04:35:43;;;;;;;6.25;5.75;;;14.60;99.90;;;;;;4995865;28;20618;-78
2022/08/23 04:38:10;;;;;;;6.53;5.82;;;14.60;99.90;;;;;;5012886;28;20052;-78
2022/08/23 04:43:20;;;;;;;5.60;5.10;;;14.50;99.90;;;;;;5008051;28;20091;-78
2022/08/23 04:45:46;;;;;;;4.97;4.57;;;14.50;99.90;;;;;;4995327;28;20045;-78
2022/08/23 04:48:12;;;;;;;5.50;5.00;;;14.40;99.90;;;;;;4989339;28;20400;-78
2022/08/23 04:50:39;;;;;;;5.10;4.68;;;14.40;99.90;;;;;;4994448;28;20030;-79
2022/08/23 04:53:05;;;;;;;6.43;5.82;;;14.40;99.90;;;;;;4997199;28;20106;-78
2022/08/23 04:55:31;;;;;;;7.40;5.90;;;14.40;99.90;;;;;;4993243;28;20052;-78
2022/08/23 04:57:57;;;;;;;7.05;6.35;;;14.40;99.90;;;;;;4983255;28;20116;-78
2022/08/23 05:00:22;;;;;;;8.40;7.38;;;14.40;99.90;;;;;;5011781;28;20499;-78
2022/08/23 05:02:48;;;;;;;10.38;8.98;;;14.50;99.90;;;;;;4960894;28;20735;-78
2022/08/23 05:05:14;;;;;;;12.15;10.07;;;14.50;99.90;;;;;;4993594;28;20053;-78
2022/08/23 05:07:40;;;;;;;13.40;11.85;;;14.50;99.90;;;;;;4996186;28;20053;-78
2022/08/23 05:10:07;;;;;;;19.52;13.63;;;14.50;99.90;;;;;;4991045;28;20095;-78
2022/08/23 05:12:33;;;;;;;15.93;13.10;;;14.60;99.90;;;;;;4994164;28;20037;-78
2022/08/23 05:14:59;;;;;;;16.33;13.07;;;14.60;99.90;;;;;;4994885;28;21844;-78
2022/08/23 05:17:25;;;;;;;18.65;15.05;;;14.60;99.90;;;;;;4997116;28;20042;-78
2022/08/23 05:19:51;;;;;;;16.65;14.60;;;14.70;99.90;;;;;;4977742;28;20124;-78
2022/08/23 05:22:17;;;;;;;22.20;14.93;;;14.70;99.90;;;;;;4994376;28;20044;-78
2022/08/23 05:24:42;;;;;;;17.02;15.23;;;14.70;99.90;;;;;;4993648;28;20511;-79
2022/08/23 05:27:08;;;;;;;19.83;17.25;;;14.80;99.90;;;;;;5013022;28;20048;-79
2022/08/23 05:29:34;;;;;;;19.35;16.95;;;14.90;99.90;;;;;;4980312;28;20390;-79
2022/08/23 05:32:00;;;;;;;20.05;16.42;;;15.00;99.90;;;;;;4997334;28;20033;-79
2022/08/23 05:34:26;;;;;;;19.02;16.63;;;15.00;99.90;;;;;;4979726;28;20042;-78
2022/08/23 05:36:52;;;;;;;20.88;16.58;;;15.10;99.90;;;;;;4953200;28;20061;-79
2022/08/23 05:39:18;;;;;;;20.45;16.25;;;15.20;99.90;;;;;;4976824;28;20038;-79
2022/08/23 05:41:43;;;;;;;17.88;16.08;;;15.30;99.90;;;;;;4957849;28;20049;-79
2022/08/23 05:44:10;;;;;;;18.45;16.02;;;15.30;99.90;;;;;;4943662;28;20137;-79
2022/08/23 05:46:37;;;;;;;18.35;16.45;;;15.30;99.90;;;;;;4970534;28;20593;-78
2022/08/23 05:49:03;;;;;;;16.50;14.68;;;15.40;99.90;;;;;;4972926;28;20565;-78
2022/08/23 05:51:31;;;;;;;19.60;16.67;;;15.40;99.90;;;;;;4957322;28;20149;-78
2022/08/23 05:54:05;;;;;;;20.40;16.98;;;15.40;99.90;;;;;;4959010;28;20042;-78
2022/08/23 05:56:41;;;;;;;18.17;15.50;;;15.50;99.90;;;;;;4969388;28;20522;-79
2022/08/23 05:59:09;;;;;;;21.38;17.65;;;15.60;99.90;;;;;;4972284;28;20066;-79
2022/08/23 06:01:36;;;;;;;25.92;17.48;;;15.60;99.90;;;;;;4969708;28;20053;-79
2022/08/23 06:04:05;;;;;;;22.60;16.33;;;15.60;99.90;;;;;;4972266;28;20415;-78
2022/08/23 06:06:32;;;;;;;23.48;17.05;;;15.70;99.90;;;;;;4986537;28;21469;-79
2022/08/23 06:08:58;;;;;;;22.35;17.63;;;15.80;99.90;;;;;;4967025;28;20466;-78
2022/08/23 06:11:27;;;;;;;20.58;17.88;;;15.90;99.90;;;;;;4956774;28;20121;-78
2022/08/23 06:13:55;;;;;;;21.08;16.88;;;16.00;99.90;;;;;;4955881;28;20045;-79
2022/08/23 06:16:25;;;;;;;19.38;17.40;;;16.10;99.90;;;;;;4969266;28;20034;-79
2022/08/23 06:18:52;;;;;;;20.70;18.55;;;16.10;99.90;;;;;;4971368;28;20038;-79
2022/08/23 06:21:18;;;;;;;20.65;17.80;;;16.20;99.90;;;;;;4971426;28;20064;-79
2022/08/23 06:23:46;;;;;;;20.58;18.10;;;16.30;99.90;;;;;;4971506;28;20574;-79
2022/08/23 06:26:24;;;;;;;24.23;19.00;;;16.30;99.90;;;;;;4964700;28;20046;-85
2022/08/23 06:28:53;;;;;;;21.52;18.38;;;16.50;99.90;;;;;;4958134;28;20088;-84
2022/08/23 06:32:06;;;;;;;20.92;17.98;;;16.60;99.90;;;;;;4944095;28;20062;-87
2022/08/23 06:34:08;;;;;;;19.42;17.20;;;16.80;99.90;;;;;;4975404;28;20138;-88
2022/08/23 06:36:36;;;;;;;20.38;17.13;;;16.90;99.90;;;;;;4978565;28;20443;-86
2022/08/23 06:39:06;;;;;;;23.38;18.00;;;17.00;99.90;;;;;;4958010;28;20076;-85
2022/08/23 06:41:33;;;;;;;19.23;17.27;;;17.10;99.90;;;;;;4954671;28;20046;-84
2022/08/23 06:43:59;;;;;;;20.50;16.60;;;17.30;99.90;;;;;;4942556;28;20575;-84
2022/08/23 06:46:27;;;;;;;18.30;16.38;;;17.40;99.90;;;;;;4959020;28;20145;-80
2022/08/23 06:48:53;;;;;;;17.50;15.73;;;17.40;99.90;;;;;;4960344;28;20112;-80
2022/08/23 06:51:31;;;;;;;21.70;16.00;;;17.50;99.90;;;;;;4975349;28;20054;-96
2022/08/23 06:53:58;;;;;;;17.65;15.43;;;17.70;99.90;;;;;;4959887;28;20124;-91
2022/08/23 06:56:26;;;;;;;15.85;14.15;;;17.80;99.90;;;;;;4960883;28;20080;-88
2022/08/23 06:58:52;;;;;;;17.35;13.98;;;17.90;99.90;;;;;;4967988;28;20060;-91
2022/08/23 07:01:22;;;;;;;18.00;14.27;;;18.00;99.90;;;;;;4977376;28;20569;-92
2022/08/23 07:03:54;;;;;;;15.35;13.27;;;18.20;99.90;;;;;;4983807;28;20053;-83
2022/08/23 07:06:23;;;;;;;14.00;12.43;;;18.30;99.90;;;;;;4969844;28;20045;-83
2022/08/23 07:08:50;;;;;;;12.27;10.20;;;18.50;99.90;;;;;;4981867;28;20038;-79
2022/08/23 07:11:16;;;;;;;11.07;9.98;;;18.70;99.90;;;;;;4967492;28;20427;-79
2022/08/23 07:13:41;;;;;;;10.82;9.73;;;19.00;99.90;;;;;;4960992;28;20155;-79
2022/08/23 07:16:07;;;;;;;12.27;9.00;;;19.20;99.90;;;;;;4947837;28;20076;-79
2022/08/23 07:18:33;;;;;;;11.80;8.30;;;19.30;99.90;;;;;;4960806;28;20054;-79
2022/08/23 07:21:01;;;;;;;11.95;8.25;;;19.50;99.90;;;;;;4961682;28;20042;-78
2022/08/23 07:23:32;;;;;;;11.25;8.65;;;19.70;99.90;;;;;;4973416;28;20049;-79
2022/08/23 07:26:05;;;;;;;10.77;7.75;;;19.80;99.90;;;;;;4978870;28;20097;-78
2022/08/23 07:28:31;;;;;;;10.23;7.63;;;20.00;99.90;;;;;;4983007;28;20030;-80
2022/08/23 07:31:17;;;;;;;9.68;7.63;;;20.20;99.90;;;;;;4999728;28;20029;-80
2022/08/23 07:33:44;;;;;;;10.32;8.02;;;20.40;99.90;;;;;;4992313;28;20037;-81
2022/08/23 07:36:13;;;;;;;9.32;7.50;;;20.60;99.90;;;;;;5004270;28;20046;-83
2022/08/23 07:38:39;;;;;;;12.70;7.80;;;20.90;99.90;;;;;;5021614;28;20038;-80
2022/08/23 07:41:05;;;;;;;10.50;7.07;;;21.10;99.90;;;;;;5004176;28;20030;-77
2022/08/23 07:43:32;;;;;;;10.27;6.90;;;21.40;99.90;;;;;;5036416;28;20038;-82
2022/08/23 07:45:58;;;;;;;10.05;7.50;;;21.70;99.90;;;;;;5020861;28;20045;-82
2022/08/23 07:48:24;;;;;;;15.13;7.38;;;21.80;99.90;;;;;;5003537;28;20045;-80
2022/08/23 07:50:56;;;;;;;9.65;6.38;;;22.00;99.90;;;;;;5005240;28;20042;-80
2022/08/23 07:53:22;;;;;;;11.50;6.43;;;22.10;99.90;;;;;;4996670;28;20077;-80
2022/08/23 07:55:47;;;;;;;11.73;6.50;;;22.40;99.90;;;;;;5013624;28;20339;-82
2022/08/23 07:58:13;;;;;;;8.60;6.15;;;22.50;99.90;;;;;;5004127;28;20030;-80
2022/08/23 08:00:39;;;;;;;8.15;6.53;;;22.70;99.90;;;;;;5022455;28;20044;-80
2022/08/23 08:03:04;;;;;;;9.70;5.93;;;22.70;99.90;;;;;;5021102;28;20064;-78
2022/08/23 08:05:32;;;;;;;8.68;5.47;;;22.80;99.90;;;;;;5037236;28;20042;-78
2022/08/23 08:07:58;;;;;;;9.70;5.00;;;22.90;99.90;;;;;;5020823;28;20030;-77
2022/08/23 08:10:23;;;;;;;9.25;5.40;;;22.80;99.90;;;;;;4984736;28;20033;-77
2022/08/23 08:12:49;;;;;;;10.85;4.90;;;22.90;99.90;;;;;;4995038;28;20120;-77
2022/08/23 08:15:16;;;;;;;9.13;5.35;;;23.00;99.90;;;;;;4993893;28;20038;-78
2022/08/23 08:17:42;;;;;;;6.63;4.80;;;23.10;99.90;;;;;;4993808;28;20038;-78
2022/08/23 08:20:08;;;;;;;10.43;5.05;;;23.10;99.90;;;;;;4975486;28;20482;-78
2022/08/23 08:22:34;;;;;;;8.27;4.75;;;23.20;99.90;;;;;;4976579;28;20041;-78
2022/08/23 08:25:00;;;;;;;5.22;4.43;;;23.40;99.90;;;;;;4993353;28;20049;-78
2022/08/23 08:27:26;;;;;;;9.32;5.10;;;23.50;99.90;;;;;;4991727;28;20044;-78
2022/08/23 08:29:51;;;;;;;8.68;5.00;;;23.60;99.90;;;;;;4959242;28;20046;-78
2022/08/23 08:32:20;;;;;;;14.93;6.15;;;23.70;99.90;;;;;;4977363;28;20483;-78
2022/08/23 08:34:46;;;;;;;10.05;5.10;;;23.70;99.90;;;;;;4953043;28;20037;-77
2022/08/23 08:37:11;;;;;;;4.90;4.40;;;23.80;99.90;;;;;;4978207;28;20054;-78
2022/08/23 08:39:44;;;;;;;8.38;4.82;;;24.00;99.90;;;;;;4982075;28;20041;-78
2022/08/23 08:42:18;;;;;;;6.18;4.53;;;24.00;99.90;;;;;;4994151;28;20029;-77
2022/08/23 08:45:02;;;;;;;6.45;4.85;;;24.10;99.20;;;;;;4992871;28;20085;-77
2022/08/23 08:47:51;;;;;;;7.75;4.90;;;24.20;98.70;;;;;;5014362;28;20038;-78
2022/08/23 08:50:56;;;;;;;8.45;4.85;;;24.40;98.60;;;;;;5008146;28;20048;-78
2022/08/23 08:53:28;;;;;;;11.40;5.15;;;24.40;98.80;;;;;;4972453;28;20136;-78
2022/08/23 08:55:59;;;;;;;6.45;4.20;;;24.30;99.40;;;;;;4996463;28;20042;-78
2022/08/23 08:58:40;;;;;;;7.10;4.65;;;24.30;99.50;;;;;;4992236;28;20046;-78
2022/08/23 09:01:07;;;;;;;7.18;4.60;;;24.30;99.20;;;;;;4993152;28;20057;-78
2022/08/23 09:03:34;;;;;;;9.82;4.20;;;24.10;98.70;;;;;;4996317;28;20046;-78
2022/08/23 09:06:13;;;;;;;9.13;4.63;;;24.20;98.90;;;;;;5007691;28;20469;-78
2022/08/23 09:09:13;;;;;;;10.35;5.10;;;24.20;99.20;;;;;;4991193;28;20038;-77
2022/08/23 09:12:08;;;;;;;7.00;4.88;;;24.20;98.90;;;;;;4992830;28;20052;-78
2022/08/23 09:14:58;;;;;;;13.75;5.28;;;24.30;99.20;;;;;;4976037;28;20077;-78
2022/08/23 09:18:03;;;;;;;7.20;4.10;;;24.50;99.00;;;;;;4993188;28;20562;-77
2022/08/23 09:20:29;;;;;;;4.57;4.18;;;24.80;99.10;;;;;;4962582;28;20057;-78
2022/08/23 09:23:11;;;;;;;9.63;4.82;;;25.10;98.80;;;;;;4994385;28;20052;-77
2022/08/23 09:25:37;;;;;;;6.10;4.20;;;25.30;97.70;;;;;;4991260;28;20665;-78
2022/08/23 09:28:03;;;;;;;8.55;4.32;;;25.50;97.90;;;;;;4979637;28;20037;-78
2022/08/23 09:30:47;;;;;;;8.20;4.25;;;25.60;97.40;;;;;;4996217;28;20041;-78
2022/08/23 09:33:20;;;;;;;5.75;3.95;;;25.60;94.60;;;;;;5004805;28;20049;-77
2022/08/23 09:36:02;;;;;;;13.10;4.15;;;25.80;96.50;;;;;;4989763;28;20554;-78
2022/08/23 09:38:28;;;;;;;7.67;3.77;;;26.00;96.20;;;;;;4989383;28;20149;-78
2022/08/23 09:40:54;;;;;;;4.88;3.40;;;26.20;96.30;;;;;;4988435;28;20941;-78
2022/08/23 09:43:26;;;;;;;6.15;3.90;;;26.30;95.60;;;;;;4971776;28;20041;-78
2022/08/23 09:45:54;;;;;;;5.60;3.65;;;26.40;94.60;;;;;;4988710;28;20100;-78
2022/08/23 09:48:43;;;;;;;4.30;3.40;;;26.50;94.60;;;;;;4972915;28;20569;-77
2022/08/23 09:51:18;;;;;;;6.05;3.33;;;26.60;93.10;;;;;;4989027;28;20124;-77
2022/08/23 09:53:49;;;;;;;4.90;3.50;;;26.80;92.80;;;;;;5009325;28;20030;-77
2022/08/23 09:56:23;;;;;;;10.45;3.70;;;26.90;92.80;;;;;;4992785;28;20061;-78
2022/08/23 09:58:52;;;;;;;6.90;3.33;;;27.00;92.20;;;;;;4992468;28;20545;-78
2022/08/23 10:01:24;;;;;;;11.23;3.30;;;27.20;92.90;;;;;;4975254;28;20042;-78
2022/08/23 10:04:13;;;;;;;7.50;3.63;;;27.40;91.90;;;;;;4990026;28;20046;-78
2022/08/23 10:06:42;;;;;;;4.97;3.20;;;27.50;91.40;;;;;;4988832;28;20777;-78
2022/08/23 10:09:20;;;;;;;5.90;3.25;;;27.60;91.70;;;;;;4972870;28;20037;-78
2022/08/23 10:11:45;;;;;;;6.57;3.50;;;27.70;92.00;;;;;;4972342;28;20045;-78
2022/08/23 10:14:17;;;;;;;5.70;3.78;;;27.80;91.30;;;;;;4970524;28;20041;-78
2022/08/23 10:17:06;;;;;;;5.80;3.30;;;27.90;91.20;;;;;;5005687;28;20041;-78
2022/08/23 10:19:57;;;;;;;13.77;3.70;;;28.00;91.20;;;;;;4991457;28;20041;-78
2022/08/23 10:22:25;;;;;;;7.22;3.72;;;28.10;91.40;;;;;;4990373;28;20514;-78
2022/08/23 10:25:32;;;;;;;5.78;3.45;;;28.20;90.80;;;;;;4989342;28;20045;-78
2022/08/23 10:31:06;;;;;;;6.93;2.95;;;28.30;86.40;;;;;;4988824;28;20049;-78
2022/08/23 10:34:04;;;;;;;6.90;3.03;;;28.30;88.80;;;;;;4990313;28;20049;-77
2022/08/23 10:36:37;;;;;;;5.43;3.13;;;28.40;86.30;;;;;;4979096;28;20096;-78
2022/08/23 10:39:10;;;;;;;6.82;3.20;;;28.40;86.20;;;;;;4998040;28;20048;-78
2022/08/23 10:41:35;;;;;;;6.72;2.80;;;28.40;83.20;;;;;;4996581;28;20046;-78
2022/08/23 10:44:07;;;;;;;4.40;2.95;;;28.40;85.00;;;;;;4996292;28;20125;-78
2022/08/23 10:46:40;;;;;;;6.30;3.03;;;28.50;85.70;;;;;;4996529;28;20049;-77
2022/08/23 10:49:10;;;;;;;6.38;3.03;;;28.50;83.50;;;;;;4991498;28;20439;-78
2022/08/23 10:51:40;;;;;;;4.55;3.30;;;28.50;84.40;;;;;;4975410;28;20044;-78
2022/08/23 10:54:11;;;;;;;5.47;3.30;;;28.50;83.20;;;;;;5003993;28;20034;-78
2022/08/23 10:56:37;;;;;;;7.13;3.25;;;28.50;84.20;;;;;;4991263;28;20450;-78
2022/08/23 10:59:24;;;;;;;4.18;2.70;;;28.50;83.20;;;;;;4994321;28;20041;-78
2022/08/23 11:01:52;;;;;;;6.53;2.80;;;28.60;83.00;;;;;;4988486;28;20069;-77
2022/08/23 11:04:32;;;;;;;6.55;3.78;;;28.70;81.80;;;;;;4991588;28;20517;-77
2022/08/23 11:07:01;;;;;;;6.13;3.38;;;28.80;82.20;;;;;;4992200;28;20081;-77
2022/08/23 11:09:28;;;;;;;5.20;3.40;;;28.90;82.90;;;;;;4991251;28;20042;-77
2022/08/23 11:12:19;;;;;;;8.68;3.80;;;29.00;81.30;;;;;;4991147;28;20040;-77
2022/08/23 11:15:01;;;;;;;4.28;2.78;;;29.10;78.80;;;;;;4983671;28;20046;-77
2022/08/23 11:17:30;;;;;;;8.77;3.72;;;29.40;79.80;;;;;;4991713;28;20136;-77
2022/08/23 11:20:03;;;;;;;6.72;3.40;;;29.50;79.50;;;;;;5002034;28;20168;-77
2022/08/23 11:22:32;;;;;;;7.30;2.60;;;29.70;80.00;;;;;;4992352;28;20434;-77
2022/08/23 11:25:25;;;;;;;8.50;3.20;;;29.80;80.00;;;;;;5002317;28;20092;-77
2022/08/23 11:28:30;;;;;;;4.95;3.22;;;29.80;77.50;;;;;;4997804;28;20033;-77
2022/08/23 11:30:56;;;;;;;13.25;3.17;;;29.90;78.90;;;;;;5000963;28;20446;-76
2022/08/23 11:33:35;;;;;;;5.97;3.13;;;30.00;77.80;;;;;;5003473;28;20062;-77
2022/08/23 11:36:23;;;;;;;8.30;3.08;;;30.10;75.40;;;;;;4973277;28;20042;-77
2022/08/23 11:38:48;;;;;;;7.35;2.95;;;30.10;75.90;;;;;;4969297;28;20034;-78
2022/08/23 11:41:26;;;;;;;8.80;3.30;;;30.00;75.70;;;;;;4979018;28;20615;-77
2022/08/23 11:43:55;;;;;;;18.80;3.45;;;30.00;75.50;;;;;;4977567;28;20121;-76
2022/08/23 11:46:30;;;;;;;8.73;3.10;;;30.10;75.60;;;;;;4975477;28;20696;-77
2022/08/23 11:49:14;;;;;;;6.97;2.90;;;29.90;72.70;;;;;;4980094;28;20042;-76
2022/08/23 11:52:05;;;;;;;13.55;3.58;;;29.90;74.80;;;;;;4982408;28;20038;-76
2022/08/23 11:54:40;;;;;;;7.78;3.42;;;30.00;74.90;;;;;;5006331;28;20049;-76
2022/08/23 11:57:27;;;;;;;5.82;3.10;;;30.10;74.00;;;;;;4980953;28;20118;-76
2022/08/23 12:00:15;;;;;;;3.65;2.50;;;30.20;74.00;;;;;;4979978;28;20088;-76
2022/08/23 12:03:01;;;;;;;7.65;2.60;;;30.20;73.00;;;;;;5002817;28;20726;-76
2022/08/23 12:05:33;;;;;;;11.77;3.33;;;30.40;71.40;;;;;;4983890;28;20504;-76
2022/08/23 12:08:01;;;;;;;4.82;2.78;;;30.40;72.70;;;;;;4981832;28;20044;-76
2022/08/23 12:10:39;;;;;;;6.35;2.75;;;30.50;72.60;;;;;;4980185;28;20049;-76
2022/08/23 12:13:18;;;;;;;5.68;3.35;;;30.50;71.80;;;;;;4980247;28;20468;-76
2022/08/23 12:16:05;;;;;;;8.30;3.15;;;30.60;72.80;;;;;;4980942;28;20030;-76
2022/08/23 12:18:35;;;;;;;5.15;2.72;;;30.40;71.60;;;;;;4983314;28;20044;-76
2022/08/23 12:21:04;;;;;;;5.90;3.08;;;30.50;72.40;;;;;;4972300;28;20042;-77
2022/08/23 12:23:41;;;;;;;8.85;3.53;;;30.60;71.60;;;;;;4981469;28;20038;-77
2022/08/23 12:26:48;;;;;;;4.53;2.40;;;30.60;70.80;;;;;;4979288;28;20045;-77
2022/08/23 12:29:41;;;;;;;4.00;2.70;;;30.50;69.00;;;;;;4980634;28;20041;-77
2022/08/23 12:32:25;;;;;;;4.22;2.60;;;30.70;70.40;;;;;;4961446;28;20041;-77
2022/08/23 12:35:29;;;;;;;7.55;2.58;;;30.80;68.00;;;;;;4990537;28;20060;-77
2022/08/23 12:37:54;;;;;;;3.53;2.45;;;30.80;69.10;;;;;;4974196;28;20052;-77
2022/08/23 12:40:45;;;;;;;6.18;2.67;;;30.80;67.50;;;;;;4974022;28;20046;-77
2022/08/23 12:43:17;;;;;;;6.93;3.10;;;31.00;68.70;;;;;;4983918;28;20042;-77
2022/08/23 12:45:47;;;;;;;6.72;3.15;;;31.10;67.50;;;;;;4975642;28;20082;-77
2022/08/23 12:48:15;;;;;;;3.95;2.75;;;31.10;68.10;;;;;;4978345;28;20113;-77
2022/08/23 12:50:44;;;;;;;4.63;2.67;;;31.30;67.70;;;;;;4977270;28;20029;-77
2022/08/23 12:53:13;;;;;;;5.38;3.03;;;31.30;66.60;;;;;;4973420;28;20046;-76
2022/08/23 12:55:44;;;;;;;5.70;2.60;;;31.30;64.90;;;;;;4975062;28;20040;-76
2022/08/23 12:58:12;;;;;;;7.50;3.10;;;31.20;66.20;;;;;;4967220;28;20500;-77
2022/08/23 13:00:49;;;;;;;4.43;2.70;;;31.10;65.20;;;;;;4961214;28;20053;-77
2022/08/23 13:03:26;;;;;;;3.80;2.67;;;31.00;65.60;;;;;;4980301;28;20218;-76
2022/08/23 13:05:54;;;;;;;4.50;3.13;;;30.80;66.20;;;;;;4982648;28;20106;-76
2022/08/23 13:08:33;;;;;;;4.30;2.85;;;30.80;66.00;;;;;;4967760;28;20038;-76
2022/08/23 13:10:59;;;;;;;7.90;2.97;;;31.00;66.70;;;;;;4976493;28;20077;-76